Terminal Aerodrome Forecast
Issued by NWS

Home | Current Version | Previous Version | Text Only | Print | Product List | Glossary On
Versions: 1 2 3 4 5 6 7 8 9 10 11 12 13 14
555
FTUS45 KFGZ 291120
TAFSEZ
TAF
KSEZ 291120Z 2912/3012 32008KT P6SM SKC
     FM291800 08010KT P6SM SKC
     FM300300 04010KT P6SM SKC=

USA.gov is the U.S. government's official web portal to all federal, state and local government web resources and services.